createdAt,value
2022-09-04T00:01:15.744Z,100376.03
2022-09-04T00:06:20.737Z,100376.78
2022-09-04T00:11:33.094Z,100377.47
2022-09-04T00:16:39.294Z,100385.31
2022-09-04T00:21:44.572Z,100385.31
2022-09-04T00:26:52.898Z,100388.88
2022-09-04T00:31:59.164Z,100389.31
2022-09-04T00:37:06.940Z,100386.88
2022-09-04T00:42:23.663Z,100391.41
2022-09-04T00:47:40.165Z,100388.00
2022-09-04T00:52:58.574Z,100386.59
2022-09-04T00:58:28.137Z,100389.44
2022-09-04T01:03:43.413Z,100391.88
2022-09-04T01:09:06.442Z,100393.28
2022-09-04T01:14:15.696Z,100403.94
2022-09-04T01:19:30.835Z,100409.47
2022-09-04T01:24:44.278Z,100410.75
2022-09-04T01:29:57.620Z,100418.41
2022-09-04T01:35:03.966Z,100418.16
2022-09-04T01:40:19.180Z,100423.13
2022-09-04T01:45:39.095Z,100427.09
2022-09-04T01:50:42.341Z,100427.22
2022-09-04T01:55:46.049Z,100429.91
2022-09-04T02:00:59.209Z,100431.16
2022-09-04T02:06:05.814Z,100433.41
2022-09-04T02:11:10.014Z,100441.81
2022-09-04T02:16:16.706Z,100440.25
2022-09-04T02:21:22.032Z,100447.34
2022-09-04T02:26:26.574Z,100445.78
2022-09-04T02:31:41.330Z,100445.66
2022-09-04T02:36:46.947Z,100450.34
2022-09-04T02:41:58.335Z,100456.84
2022-09-04T02:47:06.061Z,100455.13
2022-09-04T02:52:16.352Z,100468.47
2022-09-04T02:57:24.341Z,100476.00
2022-09-04T03:02:30.711Z,100472.59
2022-09-04T03:07:34.832Z,100476.69
2022-09-04T03:12:39.555Z,100472.56
2022-09-04T03:17:48.466Z,100475.69
2022-09-04T03:22:55.118Z,100476.97
2022-09-04T03:27:57.817Z,100468.88
2022-09-04T03:33:04.878Z,100470.03
2022-09-04T03:38:17.493Z,100474.97
2022-09-04T03:43:36.359Z,100478.38
2022-09-04T03:48:50.995Z,100480.34
2022-09-04T03:54:00.481Z,100474.66
2022-09-04T03:59:04.692Z,100476.22
2022-09-04T04:04:56.185Z,100495.25
2022-09-04T04:10:09.379Z,100489.41
2022-09-04T04:15:24.181Z,100495.38
2022-09-04T04:20:35.271Z,100500.91
2022-09-04T04:25:49.892Z,100488.13
2022-09-04T04:30:57.725Z,100496.34
2022-09-04T04:36:05.267Z,100501.59
2022-09-04T04:41:21.688Z,100506.75
2022-09-04T04:46:34.563Z,100513.00
2022-09-04T04:51:46.275Z,100530.75
2022-09-04T04:56:52.188Z,100533.41
2022-09-04T05:02:00.183Z,100546.41
2022-09-04T05:07:04.501Z,100553.38
2022-09-04T05:12:10.465Z,100566.84
2022-09-04T05:17:21.520Z,100567.69
2022-09-04T05:22:26.712Z,100569.69
2022-09-04T05:27:39.650Z,100587.69
2022-09-04T05:32:46.652Z,100591.63
2022-09-04T05:37:52.509Z,100602.41
2022-09-04T05:43:05.724Z,100605.09
2022-09-04T05:48:13.156Z,100617.72
2022-09-04T05:53:43.367Z,100625.53
2022-09-04T05:58:55.033Z,100624.56
2022-09-04T06:04:07.588Z,100631.69
2022-09-04T06:09:21.326Z,100625.44
2022-09-04T06:14:40.405Z,100637.94
2022-09-04T06:19:50.662Z,100637.31
2022-09-04T06:25:00.877Z,100639.78
2022-09-04T06:30:07.330Z,100649.72
2022-09-04T06:35:15.411Z,100640.16
2022-09-04T06:40:31.317Z,100642.56
2022-09-04T06:45:43.200Z,100649.88
2022-09-04T06:50:50.831Z,100650.88
2022-09-04T06:56:02.568Z,100653.69
2022-09-04T07:01:08.949Z,100648.56
2022-09-04T07:06:12.934Z,100665.19
2022-09-04T07:11:21.623Z,100671.06
2022-09-04T07:16:41.925Z,100676.00
2022-09-04T07:21:49.461Z,100672.69
2022-09-04T07:26:54.267Z,100678.06
2022-09-04T07:32:01.885Z,100677.13
2022-09-04T07:37:06.657Z,100678.94
2022-09-04T07:42:11.919Z,100682.16
2022-09-04T07:47:18.893Z,100689.56
2022-09-04T07:52:29.783Z,100692.50
2022-09-04T07:57:51.717Z,100696.06
2022-09-04T08:03:12.266Z,100706.97
2022-09-04T08:08:33.952Z,100701.00
2022-09-04T08:13:49.326Z,100716.06
2022-09-04T08:19:15.935Z,100725.88
2022-09-04T08:24:44.833Z,100725.47
2022-09-04T08:30:04.058Z,100727.94
2022-09-04T08:35:11.842Z,100728.19
2022-09-04T08:40:27.120Z,100736.97
2022-09-04T08:45:56.070Z,100733.81
2022-09-04T08:51:49.456Z,100730.50
2022-09-04T08:57:03.309Z,100738.06
2022-09-04T09:02:54.107Z,100736.22
2022-09-04T09:08:29.697Z,100743.44
2022-09-04T09:14:08.344Z,100745.78
2022-09-04T09:19:20.413Z,100743.84
2022-09-04T09:24:49.641Z,100744.44
2022-09-04T09:30:03.341Z,100750.44
2022-09-04T09:35:55.727Z,100748.13
2022-09-04T09:41:29.495Z,100747.31
2022-09-04T09:46:48.265Z,100747.63
2022-09-04T09:52:22.392Z,100746.03
2022-09-04T09:57:35.141Z,100739.00
2022-09-04T10:03:15.411Z,100749.16
2022-09-04T10:08:35.562Z,100747.88
2022-09-04T10:14:27.956Z,100752.06
2022-09-04T10:20:00.211Z,100745.53
2022-09-04T10:25:54.996Z,100744.16
2022-09-04T10:31:14.586Z,100743.09
2022-09-04T10:36:25.684Z,100748.03
2022-09-04T10:41:57.804Z,100736.28
2022-09-04T10:47:06.924Z,100749.63
2022-09-04T10:52:34.067Z,100753.38
2022-09-04T10:57:47.950Z,100746.00
2022-09-04T11:03:28.080Z,100744.41
2022-09-04T11:08:48.234Z,100740.47
2022-09-04T11:14:08.305Z,100747.88
2022-09-04T11:19:39.329Z,100739.06
2022-09-04T11:25:19.144Z,100745.81
2022-09-04T11:30:25.153Z,100740.59
2022-09-04T11:36:06.915Z,100742.03
2022-09-04T11:41:37.818Z,100737.91
2022-09-04T11:47:08.738Z,100735.69
2022-09-04T11:52:23.846Z,100735.69
2022-09-04T11:57:31.254Z,100728.88
2022-09-04T12:02:47.353Z,100735.00
2022-09-04T12:08:02.906Z,100731.19
2022-09-04T12:13:27.580Z,100742.00
2022-09-04T12:18:54.289Z,100733.47
2022-09-04T12:24:15.180Z,100739.59
2022-09-04T12:29:41.142Z,100734.19
2022-09-04T12:34:55.531Z,100726.69
2022-09-04T12:40:22.977Z,100723.31
2022-09-04T12:45:27.160Z,100731.41
2022-09-04T12:50:40.946Z,100726.00
2022-09-04T12:55:46.924Z,100726.72
2022-09-04T13:00:53.504Z,100724.88
2022-09-04T13:06:12.020Z,100716.53
2022-09-04T13:11:27.649Z,100722.78
2022-09-04T13:16:33.138Z,100717.03
2022-09-04T13:21:48.536Z,100715.91
2022-09-04T13:27:00.686Z,100716.06
2022-09-04T13:32:29.004Z,100721.75
2022-09-04T13:37:36.055Z,100717.88
2022-09-04T13:43:29.599Z,100725.84
2022-09-04T13:48:37.284Z,100731.25
2022-09-04T13:53:55.439Z,100729.91
2022-09-04T13:59:00.241Z,100732.09
2022-09-04T14:04:06.701Z,100729.25
2022-09-04T14:09:11.386Z,100738.94
2022-09-04T14:14:23.985Z,100738.94
2022-09-04T14:19:33.421Z,100735.97
2022-09-04T14:24:42.076Z,100729.75
2022-09-04T14:29:52.504Z,100730.00
2022-09-04T14:35:02.724Z,100737.25
2022-09-04T14:40:09.353Z,100737.69
2022-09-04T14:45:30.833Z,100732.16
2022-09-04T14:50:35.083Z,100734.00
2022-09-04T14:55:40.858Z,100737.41
2022-09-04T15:00:57.183Z,100737.44
2022-09-04T15:06:01.874Z,100743.13
2022-09-04T15:11:08.469Z,100743.13
2022-09-04T15:16:18.248Z,100750.41
2022-09-04T15:21:23.662Z,100752.94
2022-09-04T15:26:30.735Z,100751.25
2022-09-04T15:31:35.064Z,100751.25
2022-09-04T15:36:39.081Z,100754.09
2022-09-04T15:41:45.960Z,100750.41
2022-09-04T15:46:53.178Z,100753.66
2022-09-04T15:51:57.974Z,100760.66
2022-09-04T15:57:08.300Z,100761.03
2022-09-04T16:02:21.310Z,100767.75
2022-09-04T16:07:35.654Z,100762.59
2022-09-04T16:12:44.342Z,100764.75
2022-09-04T16:17:49.289Z,100777.56
2022-09-04T16:22:52.944Z,100773.88
2022-09-04T16:27:59.309Z,100771.56
2022-09-04T16:33:02.198Z,100780.13
2022-09-04T16:38:07.970Z,100780.25
2022-09-04T16:43:19.876Z,100786.78
2022-09-04T16:48:34.370Z,100787.63
2022-09-04T16:53:39.507Z,100792.75
2022-09-04T16:58:49.312Z,100796.34
2022-09-04T17:04:19.515Z,100794.75
2022-09-04T17:09:25.507Z,100807.69
2022-09-04T17:14:32.466Z,100800.59
2022-09-04T17:19:35.224Z,100803.28
2022-09-04T17:29:03.303Z,100800.00
2022-09-04T17:30:05.563Z,100807.13
2022-09-04T17:40:33.180Z,100819.13
2022-09-04T17:41:36.747Z,100816.88
2022-09-04T17:46:26.497Z,100817.22
2022-09-04T17:51:31.967Z,100817.66
2022-09-04T17:56:37.672Z,100818.63
2022-09-04T18:01:43.612Z,100835.13
2022-09-04T18:06:50.862Z,100840.53
2022-09-04T18:11:56.333Z,100851.59
2022-09-04T18:17:12.410Z,100852.44
2022-09-04T18:22:33.324Z,100856.59
2022-09-04T18:27:37.871Z,100865.56
2022-09-04T18:37:22.866Z,100870.81
2022-09-04T18:38:14.242Z,100872.69
2022-09-04T18:50:20.610Z,100872.53
2022-09-04T18:50:34.632Z,100888.31
2022-09-04T18:54:10.012Z,100892.81
2022-09-04T18:59:16.099Z,100891.81
2022-09-04T19:04:32.046Z,100885.28
2022-09-04T19:09:55.314Z,100893.50
2022-09-04T19:14:58.637Z,100895.22
2022-09-04T19:20:04.507Z,100897.06
2022-09-04T19:25:14.386Z,100906.88
2022-09-04T19:30:24.016Z,100910.44
2022-09-04T19:35:32.458Z,100905.03
2022-09-04T19:45:55.932Z,100909.44
2022-09-04T19:46:35.309Z,100910.91
2022-09-04T19:53:34.341Z,100912.00
2022-09-04T19:57:31.287Z,100913.72
2022-09-04T20:02:35.624Z,100910.16
2022-09-04T20:07:42.621Z,100922.56
2022-09-04T20:12:50.620Z,100923.44
2022-09-04T20:18:08.519Z,100927.84
2022-09-04T20:23:35.110Z,100923.44
2022-09-04T20:28:48.572Z,100930.53
2022-09-04T20:33:54.126Z,100933.38
2022-09-04T20:39:00.484Z,100933.38
2022-09-04T20:44:05.246Z,100934.09
2022-09-04T20:52:58.240Z,100940.63
2022-09-04T20:55:09.089Z,100946.03
2022-09-04T21:03:09.888Z,100945.28
2022-09-04T21:05:46.206Z,100946.16
2022-09-04T21:10:53.961Z,100942.00
2022-09-04T21:16:02.857Z,100941.03
2022-09-04T21:21:42.836Z,100949.97
2022-09-04T21:27:01.063Z,100951.97
2022-09-04T21:32:16.039Z,100951.84
2022-09-04T21:37:22.802Z,100954.25
2022-09-04T21:42:47.589Z,100955.09
2022-09-04T21:48:06.852Z,100957.72
2022-09-04T21:53:59.392Z,100958.22
2022-09-04T22:02:36.515Z,100953.09
2022-09-04T22:04:42.389Z,100952.69
2022-09-04T22:13:44.033Z,100961.19
2022-09-04T22:15:25.070Z,100947.31
2022-09-04T22:20:44.507Z,100948.69
2022-09-04T22:25:48.421Z,100941.59
2022-09-04T22:31:05.414Z,100947.78
2022-09-04T22:36:45.167Z,100948.19
2022-09-04T22:42:07.613Z,100946.47
2022-09-04T22:47:31.380Z,100941.06
2022-09-04T22:52:48.227Z,100944.34
2022-09-04T22:57:57.299Z,100952.88
2022-09-04T23:03:33.026Z,100950.88
2022-09-04T23:13:44.302Z,100959.78
2022-09-04T23:14:39.120Z,100961.00
2022-09-04T23:24:15.170Z,100960.03
2022-09-04T23:26:50.542Z,100960.56
2022-09-04T23:31:19.799Z,100960.41
2022-09-04T23:36:49.814Z,100964.09
2022-09-04T23:41:55.927Z,100957.72
2022-09-04T23:47:05.642Z,100951.19
2022-09-04T23:52:14.495Z,100963.69
2022-09-04T23:57:26.031Z,100975.00
